< < Back
Terminal Aerodrome Forecast


Current Version              Previous Versions:   1  2  3  4  5  6  7  8  9  

Terminal Aerodrome Forecast

868
FTUS42 KJAX 291100
TAFSSI
TAF
KSSI 291121Z 2912/3012 VRB03KT P6SM SKC
     FM291600 12010KT P6SM SCT040
     FM300300 18004KT P6SM SCT250=

Latest METAR

735
SAUS70 KWBC 291200 RRG
MTRSSI
METAR KSSI 291153Z AUTO 01003KT 10SM CLR 23/22 A3006 RMK AO2 SLP180
T02330222 10256 20217 53015 $


USA.gov is the U.S. government's official web portal to all federal, state and local government web resources and services.